Time;durP1;ratioP1;P1;durP2;ratioP2;P2;SDS_P1;SDS_P2;PMS_P1;PMS_P2;Temp;Humidity;BMP_temperature;BMP_pressure;BME280_temperature;BME280_humidity;BME280_pressure;Samples;Min_cycle;Max_cycle;Signal;HPM_P1;HPM_P2
2023/08/30 00:00:56;;;;;;;0.90;0.30;;;20.00;52.90;;;;;;5132986;27;20559;-54
2023/08/30 00:03:22;;;;;;;1.17;0.87;;;20.10;52.90;;;;;;5134068;27;20163;-50
2023/08/30 00:05:48;;;;;;;1.00;0.40;;;20.10;52.90;;;;;;5134186;27;20902;-54
2023/08/30 00:08:18;;;;;;;1.07;0.60;;;20.10;52.90;;;;;;5133340;27;20400;-54
2023/08/30 00:10:44;;;;;;;0.97;0.37;;;20.10;52.80;;;;;;5134055;27;20181;-54
2023/08/30 00:13:10;;;;;;;1.10;0.60;;;20.10;53.10;;;;;;5134028;27;20893;-50
2023/08/30 00:15:35;;;;;;;1.13;0.50;;;20.10;52.70;;;;;;5133763;27;20494;-52
2023/08/30 00:18:01;;;;;;;1.00;0.40;;;20.10;52.70;;;;;;5133778;27;20851;-54
2023/08/30 00:20:27;;;;;;;1.00;0.50;;;20.10;52.60;;;;;;5133816;27;20195;-49
2023/08/30 00:22:52;;;;;;;0.90;0.40;;;20.10;52.70;;;;;;5133831;27;20174;-52
2023/08/30 00:25:18;;;;;;;1.10;0.50;;;20.10;52.80;;;;;;5133535;27;20166;-54
2023/08/30 00:27:44;;;;;;;1.20;0.40;;;20.10;52.80;;;;;;5133751;27;20190;-52
2023/08/30 00:30:10;;;;;;;1.23;0.53;;;20.10;52.90;;;;;;5133704;27;20696;-50
2023/08/30 00:32:36;;;;;;;1.40;0.50;;;20.10;53.00;;;;;;5133480;27;20205;-56
2023/08/30 00:35:02;;;;;;;1.00;0.53;;;20.10;53.10;;;;;;5131932;27;20656;-50
2023/08/30 00:37:28;;;;;;;0.90;0.37;;;20.10;53.10;;;;;;5133563;27;20187;-49
2023/08/30 00:39:54;;;;;;;1.00;0.50;;;20.10;53.00;;;;;;5133451;27;20447;-55
2023/08/30 00:42:19;;;;;;;1.00;0.60;;;20.10;52.80;;;;;;5133458;27;20167;-53
2023/08/30 00:44:45;;;;;;;1.37;0.50;;;20.10;53.60;;;;;;5133156;27;20254;-51
2023/08/30 00:47:11;;;;;;;1.10;0.53;;;20.10;53.00;;;;;;5133389;27;20235;-57
2023/08/30 00:49:37;;;;;;;1.10;0.60;;;20.10;53.00;;;;;;5133385;27;20641;-55
2023/08/30 00:52:08;;;;;;;1.00;0.38;;;20.10;53.00;;;;;;5133531;27;20178;-51
2023/08/30 00:54:34;;;;;;;1.02;0.45;;;20.20;53.00;;;;;;5133115;27;20186;-54
2023/08/30 00:57:03;;;;;;;1.00;0.50;;;20.20;53.00;;;;;;5133178;27;20221;-53
2023/08/30 00:59:32;;;;;;;1.20;0.60;;;20.20;53.00;;;;;;5133044;27;20285;-50
2023/08/30 01:01:58;;;;;;;1.10;0.63;;;20.20;52.90;;;;;;5133148;27;20909;-53
2023/08/30 01:04:25;;;;;;;0.90;0.30;;;20.20;52.80;;;;;;5132885;27;20205;-50
2023/08/30 01:06:52;;;;;;;1.20;0.70;;;20.20;52.70;;;;;;5131725;27;20503;-54
2023/08/30 01:09:18;;;;;;;1.00;0.40;;;20.10;52.60;;;;;;5133129;27;20175;-51
2023/08/30 01:11:56;;;;;;;1.10;0.70;;;20.10;52.80;;;;;;5132913;27;20441;-51
2023/08/30 01:14:28;;;;;;;1.00;0.57;;;20.10;53.00;;;;;;5132705;27;20178;-55
2023/08/30 01:16:57;;;;;;;1.40;1.00;;;20.10;53.00;;;;;;5132972;27;20772;-49
2023/08/30 01:19:38;;;;;;;1.00;0.40;;;20.10;53.00;;;;;;5132753;27;20188;-53
2023/08/30 01:22:35;;;;;;;0.90;0.30;;;20.20;53.00;;;;;;5132882;28;20403;-49
2023/08/30 01:25:08;;;;;;;1.00;0.40;;;20.20;53.00;;;;;;5132703;28;20174;-53
2023/08/30 01:27:36;;;;;;;1.10;0.80;;;20.20;53.00;;;;;;5132740;28;20201;-52
2023/08/30 01:30:05;;;;;;;0.98;0.40;;;20.10;53.00;;;;;;5133080;27;20214;-56
2023/08/30 01:32:33;;;;;;;1.30;0.57;;;20.20;52.80;;;;;;5132815;27;20202;-53
2023/08/30 01:35:00;;;;;;;1.10;0.52;;;20.20;52.90;;;;;;5132585;27;20258;-51
2023/08/30 01:37:27;;;;;;;0.90;0.30;;;20.20;52.90;;;;;;5132792;27;20666;-54
2023/08/30 01:39:54;;;;;;;1.00;0.40;;;20.20;52.90;;;;;;5132770;27;20664;-52
2023/08/30 01:42:22;;;;;;;1.30;0.70;;;20.20;52.80;;;;;;5132764;28;20169;-51
2023/08/30 01:44:49;;;;;;;0.90;0.30;;;20.20;52.80;;;;;;5132480;27;20408;-55
2023/08/30 01:47:17;;;;;;;1.00;0.40;;;20.20;52.80;;;;;;5132901;27;20477;-57
2023/08/30 01:49:43;;;;;;;1.13;0.70;;;20.10;52.70;;;;;;5132595;28;20258;-51
2023/08/30 01:52:11;;;;;;;1.00;0.37;;;20.10;52.80;;;;;;5132667;28;20543;-57
2023/08/30 01:54:38;;;;;;;1.00;0.50;;;20.20;52.80;;;;;;5132414;28;20493;-53
2023/08/30 01:57:05;;;;;;;1.10;0.40;;;20.20;52.90;;;;;;5132559;28;20190;-52
2023/08/30 01:59:31;;;;;;;1.00;0.40;;;20.20;52.80;;;;;;5132745;28;20451;-55
2023/08/30 02:01:57;;;;;;;1.20;0.60;;;20.20;52.90;;;;;;5132561;27;20543;-55
2023/08/30 02:04:23;;;;;;;1.00;0.33;;;20.20;52.80;;;;;;5132347;27;20215;-52
2023/08/30 02:06:50;;;;;;;1.17;0.40;;;20.20;52.80;;;;;;5132500;27;20416;-56
2023/08/30 02:09:28;;;;;;;1.10;0.50;;;20.20;52.80;;;;;;5132586;27;20453;-53
2023/08/30 02:11:56;;;;;;;1.17;0.63;;;20.20;52.80;;;;;;5132734;27;20739;-51
2023/08/30 02:14:25;;;;;;;1.20;0.63;;;20.20;52.80;;;;;;5132222;27;20388;-51
2023/08/30 02:16:52;;;;;;;1.00;0.50;;;20.20;52.70;;;;;;5132559;28;20431;-56
2023/08/30 02:19:20;;;;;;;0.90;0.30;;;20.20;52.60;;;;;;5132486;27;20392;-54
2023/08/30 02:21:47;;;;;;;1.43;0.50;;;20.20;52.70;;;;;;5132281;28;20804;-51
2023/08/30 02:24:13;;;;;;;1.23;0.73;;;20.20;52.60;;;;;;5130784;28;20433;-51
2023/08/30 02:26:39;;;;;;;0.90;0.30;;;20.10;52.60;;;;;;5132324;27;20412;-55
2023/08/30 02:29:05;;;;;;;1.00;0.40;;;20.10;52.70;;;;;;5132187;27;20396;-55
2023/08/30 02:31:31;;;;;;;1.00;0.40;;;20.10;52.70;;;;;;5135601;27;20182;-51
2023/08/30 02:33:56;;;;;;;1.47;0.50;;;20.10;52.80;;;;;;5135984;27;20399;-53
2023/08/30 02:36:22;;;;;;;1.03;0.40;;;20.10;52.60;;;;;;5135552;27;20576;-51
2023/08/30 02:38:49;;;;;;;1.00;0.40;;;20.20;52.60;;;;;;5135860;27;20261;-50
2023/08/30 02:41:15;;;;;;;1.00;0.50;;;20.20;52.50;;;;;;5135719;27;20454;-51
2023/08/30 02:43:40;;;;;;;1.00;0.50;;;20.10;52.60;;;;;;5135625;27;20393;-54
2023/08/30 02:46:06;;;;;;;1.00;0.30;;;20.10;52.60;;;;;;5135452;27;20163;-54
2023/08/30 02:48:33;;;;;;;1.00;0.50;;;20.20;52.70;;;;;;5135713;27;20220;-50
2023/08/30 02:50:59;;;;;;;0.90;0.30;;;20.20;52.70;;;;;;5135815;27;20177;-50
2023/08/30 02:53:25;;;;;;;0.97;0.43;;;20.20;52.60;;;;;;5135634;27;20404;-54
2023/08/30 02:55:50;;;;;;;1.30;0.43;;;20.20;52.60;;;;;;5135553;27;20400;-55
2023/08/30 02:58:16;;;;;;;1.50;0.70;;;20.20;52.60;;;;;;5135475;27;20752;-50
2023/08/30 03:00:42;;;;;;;1.00;0.67;;;20.20;52.60;;;;;;5135335;27;20706;-51
2023/08/30 03:03:08;;;;;;;1.00;0.40;;;20.20;52.50;;;;;;5135411;27;20169;-56
2023/08/30 03:05:34;;;;;;;1.00;0.50;;;20.20;52.50;;;;;;5135239;27;20197;-54
2023/08/30 03:08:00;;;;;;;1.25;0.70;;;20.20;52.60;;;;;;5135269;27;20182;-50
2023/08/30 03:10:26;;;;;;;1.00;0.50;;;20.20;52.40;;;;;;5133976;27;20540;-50
2023/08/30 03:12:51;;;;;;;1.00;0.30;;;20.20;52.50;;;;;;5135161;27;20576;-55
2023/08/30 03:15:17;;;;;;;1.37;0.50;;;20.20;52.40;;;;;;5134962;27;20174;-51
2023/08/30 03:17:43;;;;;;;1.00;0.40;;;20.20;52.50;;;;;;5135082;27;20187;-50
2023/08/30 03:20:09;;;;;;;1.07;0.50;;;20.20;52.30;;;;;;5135024;27;20194;-55
2023/08/30 03:22:35;;;;;;;1.20;0.80;;;20.10;52.40;;;;;;5134982;27;20167;-53
2023/08/30 03:25:03;;;;;;;1.10;0.40;;;20.10;52.40;;;;;;5134781;27;20393;-51
2023/08/30 03:27:29;;;;;;;1.35;0.73;;;20.10;52.20;;;;;;5134758;27;20672;-52
2023/08/30 03:29:56;;;;;;;1.00;0.60;;;20.10;52.40;;;;;;5134929;27;20178;-54
2023/08/30 03:32:22;;;;;;;1.00;0.60;;;20.10;52.20;;;;;;5134861;27;20166;-51
2023/08/30 03:34:48;;;;;;;1.77;0.70;;;20.10;52.20;;;;;;5134607;27;20424;-52
2023/08/30 03:37:15;;;;;;;1.10;0.60;;;20.10;52.00;;;;;;5134691;27;20420;-55
2023/08/30 03:39:40;;;;;;;2.08;1.08;;;20.10;52.30;;;;;;5134891;27;20444;-51
2023/08/30 03:42:06;;;;;;;1.23;0.67;;;20.10;52.10;;;;;;5133317;27;20307;-51
2023/08/30 03:44:32;;;;;;;1.03;0.57;;;20.10;52.10;;;;;;5134700;27;20408;-56
2023/08/30 03:46:58;;;;;;;0.97;0.50;;;20.10;52.50;;;;;;5134528;27;20206;-55
2023/08/30 03:49:24;;;;;;;1.00;0.50;;;20.10;52.40;;;;;;5134466;27;20159;-51
2023/08/30 03:51:49;;;;;;;1.00;0.50;;;20.10;52.50;;;;;;5134681;27;20231;-53
2023/08/30 03:54:18;;;;;;;1.00;0.50;;;20.10;52.20;;;;;;5134239;27;21047;-55
2023/08/30 03:56:44;;;;;;;0.95;0.35;;;20.10;52.10;;;;;;5134142;27;20745;-49
2023/08/30 03:59:10;;;;;;;1.00;0.50;;;20.10;52.20;;;;;;5134334;27;20167;-52
2023/08/30 04:01:36;;;;;;;1.00;0.40;;;20.10;52.40;;;;;;5134386;27;20494;-52
2023/08/30 04:04:02;;;;;;;0.97;0.40;;;20.10;52.40;;;;;;5134158;27;20438;-56
2023/08/30 04:06:27;;;;;;;1.00;0.50;;;20.10;52.50;;;;;;5133991;27;20190;-55
2023/08/30 04:08:53;;;;;;;1.10;0.50;;;20.10;52.50;;;;;;5134126;27;20672;-51
2023/08/30 04:11:19;;;;;;;1.10;0.50;;;20.10;52.30;;;;;;5134187;27;20170;-52
2023/08/30 04:13:45;;;;;;;1.00;0.30;;;20.10;52.50;;;;;;5134117;27;20174;-56
2023/08/30 04:16:11;;;;;;;0.90;0.40;;;20.10;52.40;;;;;;5133897;27;20229;-50
2023/08/30 04:18:36;;;;;;;0.90;0.30;;;20.10;52.50;;;;;;5132702;27;20419;-54
2023/08/30 04:21:02;;;;;;;1.23;0.53;;;20.10;52.60;;;;;;5133895;27;20198;-55
2023/08/30 04:23:29;;;;;;;1.30;0.93;;;20.10;52.50;;;;;;5133872;27;20154;-52
2023/08/30 04:25:55;;;;;;;1.00;0.63;;;20.10;52.50;;;;;;5133390;27;20488;-51
2023/08/30 04:28:21;;;;;;;1.00;0.50;;;20.10;52.20;;;;;;5133753;27;20500;-56
2023/08/30 04:30:47;;;;;;;1.00;0.50;;;20.10;52.20;;;;;;5133862;27;20406;-51
2023/08/30 04:33:13;;;;;;;1.00;0.30;;;20.10;52.50;;;;;;5133722;27;20171;-52
2023/08/30 04:35:39;;;;;;;1.10;0.60;;;20.10;52.60;;;;;;5133344;27;20424;-52
2023/08/30 04:38:05;;;;;;;1.30;0.77;;;20.10;52.40;;;;;;5133441;27;20974;-58
2023/08/30 04:40:32;;;;;;;1.00;0.47;;;20.10;52.40;;;;;;5133665;27;20702;-53
2023/08/30 04:43:00;;;;;;;1.00;0.43;;;20.10;52.40;;;;;;5133772;27;20408;-56
2023/08/30 04:45:27;;;;;;;1.08;0.57;;;20.20;52.40;;;;;;5133141;27;20686;-58
2023/08/30 04:47:54;;;;;;;1.10;0.65;;;20.20;52.50;;;;;;5133293;27;20606;-53
2023/08/30 04:50:20;;;;;;;1.10;0.60;;;20.10;52.20;;;;;;5133357;27;20174;-53
2023/08/30 04:52:45;;;;;;;1.20;0.87;;;20.10;52.30;;;;;;5132851;27;20409;-55
2023/08/30 04:55:11;;;;;;;1.20;0.60;;;20.10;52.40;;;;;;5133006;27;20410;-52
2023/08/30 04:57:37;;;;;;;1.00;0.50;;;20.10;52.20;;;;;;5133180;27;20183;-54
2023/08/30 05:00:04;;;;;;;1.27;0.50;;;20.10;52.30;;;;;;5133144;27;20444;-55
2023/08/30 05:02:31;;;;;;;1.10;0.60;;;20.10;52.30;;;;;;5133450;27;20193;-52
2023/08/30 05:04:57;;;;;;;2.10;0.63;;;20.10;52.50;;;;;;5132943;27;20166;-53
2023/08/30 05:07:22;;;;;;;1.00;0.40;;;20.10;52.50;;;;;;5132964;27;20737;-57
2023/08/30 05:09:48;;;;;;;1.33;1.00;;;20.10;52.70;;;;;;5133366;27;20171;-52
2023/08/30 05:12:14;;;;;;;2.17;0.57;;;20.10;52.60;;;;;;5133234;27;20396;-54
2023/08/30 05:14:40;;;;;;;2.53;0.70;;;20.20;52.60;;;;;;5132803;27;20477;-53
2023/08/30 05:17:07;;;;;;;1.65;0.80;;;20.20;52.70;;;;;;5133206;27;20206;-51
2023/08/30 05:19:33;;;;;;;1.00;0.40;;;20.20;52.50;;;;;;5132849;27;20266;-57
2023/08/30 05:21:59;;;;;;;1.30;0.85;;;20.20;52.50;;;;;;5132847;27;20170;-56
2023/08/30 05:24:26;;;;;;;1.10;0.70;;;20.20;52.10;;;;;;5132684;27;20188;-51
2023/08/30 05:26:52;;;;;;;1.23;0.50;;;20.20;52.10;;;;;;5132853;28;20175;-53
2023/08/30 05:29:17;;;;;;;2.20;0.50;;;20.20;51.90;;;;;;5132966;27;20721;-56
2023/08/30 05:31:44;;;;;;;0.90;0.40;;;20.20;52.10;;;;;;5132863;27;20470;-50
2023/08/30 05:34:10;;;;;;;1.00;0.40;;;20.20;52.30;;;;;;5132554;27;20170;-51
2023/08/30 05:36:36;;;;;;;1.35;0.50;;;20.30;53.20;;;;;;5132563;27;20186;-55
2023/08/30 05:39:03;;;;;;;1.00;0.57;;;20.20;52.60;;;;;;5132914;27;20253;-52
2023/08/30 05:41:29;;;;;;;1.00;0.38;;;20.30;52.60;;;;;;5132713;28;20447;-50
2023/08/30 05:43:55;;;;;;;1.00;0.40;;;20.30;52.50;;;;;;5132645;27;20213;-54
2023/08/30 05:46:21;;;;;;;1.90;0.70;;;20.30;52.50;;;;;;5132486;27;20212;-51
2023/08/30 05:48:47;;;;;;;1.13;0.40;;;20.30;52.60;;;;;;5132712;28;20397;-54
2023/08/30 05:51:13;;;;;;;1.10;0.57;;;20.30;52.60;;;;;;5131248;28;20171;-56
2023/08/30 05:53:38;;;;;;;1.03;0.30;;;20.30;52.40;;;;;;5132706;27;20219;-52
2023/08/30 05:56:04;;;;;;;1.00;0.40;;;20.30;52.40;;;;;;5132403;28;20536;-51
2023/08/30 05:58:30;;;;;;;1.00;0.37;;;20.30;52.50;;;;;;5132668;27;20239;-54
2023/08/30 06:00:57;;;;;;;6.00;0.70;;;20.30;52.60;;;;;;5132554;28;20473;-52
2023/08/30 06:03:23;;;;;;;0.97;0.30;;;20.30;52.60;;;;;;5132651;28;20175;-50
2023/08/30 06:05:48;;;;;;;1.37;1.07;;;20.40;52.60;;;;;;5134554;27;20396;-57
2023/08/30 06:08:15;;;;;;;1.00;0.60;;;20.40;52.50;;;;;;5136455;27;20491;-51
2023/08/30 06:10:41;;;;;;;1.80;0.40;;;20.40;52.50;;;;;;5136429;27;20174;-53
2023/08/30 06:13:06;;;;;;;2.77;2.57;;;20.40;52.40;;;;;;5136410;27;20213;-56
2023/08/30 06:15:33;;;;;;;1.10;0.50;;;20.40;52.30;;;;;;5136465;27;20436;-52
2023/08/30 06:17:59;;;;;;;1.00;0.30;;;20.50;52.40;;;;;;5136307;27;20194;-54
2023/08/30 06:20:25;;;;;;;1.00;0.40;;;20.50;52.30;;;;;;5136026;27;20195;-51
2023/08/30 06:22:51;;;;;;;1.20;0.73;;;20.50;52.40;;;;;;5136261;27;20392;-51
2023/08/30 06:25:16;;;;;;;1.05;0.55;;;20.50;52.30;;;;;;5136201;27;20167;-54
2023/08/30 06:27:55;;;;;;;1.17;0.67;;;20.50;52.20;;;;;;5136127;27;20186;-56
2023/08/30 06:30:20;;;;;;;1.00;0.40;;;20.50;52.00;;;;;;5136143;27;20166;-51
2023/08/30 06:32:46;;;;;;;2.57;0.60;;;20.50;51.80;;;;;;5134689;27;20400;-53
2023/08/30 06:35:12;;;;;;;1.00;0.57;;;20.60;52.00;;;;;;5135536;27;20540;-57
2023/08/30 06:37:38;;;;;;;1.20;0.90;;;20.60;52.00;;;;;;5135874;27;20560;-49
2023/08/30 06:40:04;;;;;;;1.37;0.70;;;20.60;52.70;;;;;;5135791;27;20201;-56
2023/08/30 06:42:31;;;;;;;1.10;0.40;;;20.60;52.00;;;;;;5135891;27;20305;-53
2023/08/30 06:44:57;;;;;;;1.77;0.60;;;20.60;52.10;;;;;;5135794;27;20905;-54
2023/08/30 06:47:23;;;;;;;1.20;0.53;;;20.60;52.00;;;;;;5135622;27;20190;-53
2023/08/30 06:49:48;;;;;;;1.53;1.13;;;20.60;52.10;;;;;;5135844;27;20182;-51
2023/08/30 06:52:14;;;;;;;2.03;0.80;;;20.60;51.80;;;;;;5135668;27;20195;-56
2023/08/30 06:54:40;;;;;;;1.97;0.93;;;20.70;51.80;;;;;;5134169;27;20185;-56
2023/08/30 06:57:07;;;;;;;1.00;0.43;;;20.70;51.70;;;;;;5135788;27;20431;-53
2023/08/30 06:59:33;;;;;;;1.20;0.60;;;20.70;51.90;;;;;;5135501;27;20261;-54
2023/08/30 07:01:58;;;;;;;2.60;0.70;;;20.70;51.70;;;;;;5135462;27;20407;-53
2023/08/30 07:04:24;;;;;;;1.90;0.53;;;20.80;51.80;;;;;;5135070;27;20404;-52
2023/08/30 07:06:51;;;;;;;1.00;0.40;;;20.80;51.60;;;;;;5135333;27;20238;-55
2023/08/30 07:09:17;;;;;;;1.00;0.57;;;20.80;51.90;;;;;;5135367;27;20166;-56
2023/08/30 07:11:46;;;;;;;1.30;0.60;;;20.90;52.10;;;;;;5135371;27;20803;-51
2023/08/30 07:14:14;;;;;;;1.00;0.40;;;20.90;51.90;;;;;;5135046;27;20215;-57
2023/08/30 07:16:40;;;;;;;1.60;1.03;;;20.90;51.90;;;;;;5134737;27;20270;-50
2023/08/30 07:19:06;;;;;;;1.73;0.63;;;20.90;51.80;;;;;;5135104;27;20411;-53
2023/08/30 07:21:33;;;;;;;1.10;0.70;;;20.90;51.60;;;;;;5134980;27;21012;-55
2023/08/30 07:23:58;;;;;;;1.13;0.40;;;21.00;51.80;;;;;;5135590;27;20406;-52
2023/08/30 07:26:24;;;;;;;1.17;0.60;;;21.00;51.30;;;;;;5134821;27;20495;-51
2023/08/30 07:28:50;;;;;;;1.57;0.60;;;21.00;51.40;;;;;;5134975;27;20167;-53
2023/08/30 07:31:18;;;;;;;1.07;0.40;;;20.90;51.10;;;;;;5134884;27;20175;-54
2023/08/30 07:33:44;;;;;;;1.10;0.40;;;21.00;51.20;;;;;;5134852;27;20231;-51
2023/08/30 07:36:11;;;;;;;1.63;1.37;;;21.00;51.10;;;;;;5134346;27;20984;-54
2023/08/30 07:38:37;;;;;;;1.70;0.83;;;21.10;51.30;;;;;;5134715;27;20831;-56
2023/08/30 07:41:03;;;;;;;1.17;0.70;;;21.00;51.10;;;;;;5134635;27;20456;-51
2023/08/30 07:43:29;;;;;;;3.33;1.60;;;21.10;51.30;;;;;;5134586;27;20401;-56
2023/08/30 07:45:54;;;;;;;1.20;0.70;;;21.10;51.30;;;;;;5134302;27;20483;-52
2023/08/30 07:48:20;;;;;;;1.40;1.07;;;21.20;51.40;;;;;;5134792;27;20163;-50
2023/08/30 07:50:46;;;;;;;2.70;0.87;;;21.20;50.80;;;;;;5134538;27;20197;-54
2023/08/30 07:53:12;;;;;;;1.10;0.50;;;21.20;50.90;;;;;;5134561;27;20198;-51
2023/08/30 07:55:37;;;;;;;1.03;0.40;;;21.20;50.70;;;;;;5134203;27;20166;-50
2023/08/30 07:58:03;;;;;;;1.10;0.53;;;21.20;50.70;;;;;;5133024;27;20424;-55
2023/08/30 08:00:29;;;;;;;1.20;0.60;;;21.30;51.10;;;;;;5134158;27;20692;-53
2023/08/30 08:02:55;;;;;;;1.83;0.50;;;21.30;50.60;;;;;;5134215;27;20174;-51
2023/08/30 08:05:21;;;;;;;2.50;0.70;;;21.30;50.60;;;;;;5134113;27;20408;-55
2023/08/30 08:07:52;;;;;;;1.20;0.70;;;21.30;50.50;;;;;;5134446;27;20215;-50
2023/08/30 08:10:19;;;;;;;1.73;1.10;;;21.40;50.40;;;;;;5134111;27;20165;-53
2023/08/30 08:12:44;;;;;;;1.17;0.70;;;21.30;50.70;;;;;;5134333;27;20404;-54
2023/08/30 08:15:10;;;;;;;1.37;0.63;;;21.40;50.80;;;;;;5133720;27;20418;-53
2023/08/30 08:17:36;;;;;;;1.03;0.47;;;21.40;50.80;;;;;;5134043;27;20225;-51
2023/08/30 08:20:05;;;;;;;1.10;0.60;;;21.50;50.80;;;;;;5132660;27;20487;-54
2023/08/30 08:22:31;;;;;;;1.17;0.70;;;21.40;50.60;;;;;;5134265;27;20258;-50
2023/08/30 08:24:57;;;;;;;1.53;1.00;;;21.50;50.80;;;;;;5133603;27;20487;-58
2023/08/30 08:27:24;;;;;;;1.30;0.77;;;21.50;50.00;;;;;;5133149;27;20412;-51
2023/08/30 08:29:50;;;;;;;1.70;0.90;;;21.60;50.30;;;;;;5133866;27;20404;-56
2023/08/30 08:32:16;;;;;;;1.10;0.70;;;21.60;50.10;;;;;;5133643;27;20396;-57
2023/08/30 08:34:41;;;;;;;1.23;0.60;;;21.60;50.30;;;;;;5133323;27;20477;-50
2023/08/30 08:37:07;;;;;;;1.03;0.47;;;21.70;50.30;;;;;;5133602;27;20747;-55
2023/08/30 08:39:34;;;;;;;1.10;0.60;;;21.70;50.20;;;;;;5133478;27;20166;-56
2023/08/30 08:42:00;;;;;;;1.10;0.50;;;21.80;49.80;;;;;;5133425;27;20412;-51
2023/08/30 08:44:30;;;;;;;1.30;0.80;;;21.90;50.10;;;;;;5133538;27;20388;-51
2023/08/30 08:46:57;;;;;;;1.07;0.40;;;21.90;49.70;;;;;;5133421;27;20929;-55
2023/08/30 08:49:28;;;;;;;1.20;0.67;;;22.00;49.90;;;;;;5133352;27;20435;-51
2023/08/30 08:51:54;;;;;;;2.50;1.23;;;22.10;49.70;;;;;;5133432;27;20407;-50
2023/08/30 08:54:20;;;;;;;1.13;0.60;;;22.10;49.10;;;;;;5133153;27;20900;-56
2023/08/30 08:56:46;;;;;;;1.23;0.60;;;22.10;49.10;;;;;;5131884;27;20416;-56
2023/08/30 08:59:12;;;;;;;2.03;1.07;;;22.20;49.30;;;;;;5133258;27;20890;-50
2023/08/30 09:01:41;;;;;;;1.10;0.60;;;22.20;47.70;;;;;;5133077;27;20992;-56
2023/08/30 09:04:09;;;;;;;1.07;0.43;;;22.20;48.70;;;;;;5132928;27;20399;-55
2023/08/30 09:06:35;;;;;;;1.83;0.77;;;22.20;48.20;;;;;;5133338;27;20504;-51
2023/08/30 09:09:06;;;;;;;1.20;0.67;;;22.20;48.40;;;;;;5133370;27;20404;-57
2023/08/30 09:11:32;;;;;;;1.30;0.70;;;22.30;48.40;;;;;;5133081;27;20415;-58
2023/08/30 09:13:58;;;;;;;1.00;0.40;;;22.30;48.40;;;;;;5133084;27;20435;-53
2023/08/30 09:16:24;;;;;;;1.00;0.50;;;22.30;48.40;;;;;;5132893;27;20456;-51
2023/08/30 09:19:03;;;;;;;1.10;0.50;;;22.40;47.90;;;;;;5132968;27;20938;-51
2023/08/30 09:21:29;;;;;;;1.97;0.70;;;22.40;48.40;;;;;;5133204;27;20190;-55
2023/08/30 09:24:02;;;;;;;1.20;0.70;;;22.50;48.40;;;;;;5132828;27;20449;-52
2023/08/30 09:26:31;;;;;;;1.03;0.50;;;22.60;47.10;;;;;;5132666;27;20432;-52
2023/08/30 09:29:08;;;;;;;1.00;0.30;;;22.60;48.10;;;;;;5132906;27;20408;-58
2023/08/30 09:31:35;;;;;;;1.00;0.43;;;22.60;48.80;;;;;;5132894;27;20388;-51
2023/08/30 09:34:01;;;;;;;1.53;1.07;;;22.70;48.10;;;;;;5133062;27;20411;-50
2023/08/30 09:36:33;;;;;;;1.13;0.50;;;23.40;48.30;;;;;;5132372;27;20443;-57
2023/08/30 09:39:02;;;;;;;1.00;0.50;;;22.90;48.00;;;;;;5133905;27;20468;-56
2023/08/30 09:41:28;;;;;;;1.40;0.50;;;22.90;46.10;;;;;;5136970;27;20451;-50
2023/08/30 09:43:54;;;;;;;1.10;0.63;;;22.90;47.30;;;;;;5137049;27;20408;-51
2023/08/30 09:46:20;;;;;;;1.10;0.53;;;23.10;47.90;;;;;;5136703;27;20428;-56
2023/08/30 09:48:46;;;;;;;1.00;0.50;;;23.10;47.50;;;;;;5136795;27;20452;-51
2023/08/30 09:51:13;;;;;;;1.17;0.63;;;23.20;47.70;;;;;;5136861;27;20175;-51
2023/08/30 09:53:43;;;;;;;1.20;0.50;;;23.20;47.10;;;;;;5136876;27;20169;-55
2023/08/30 09:56:13;;;;;;;1.30;0.80;;;23.30;47.30;;;;;;5136468;27;20445;-53
2023/08/30 09:58:40;;;;;;;1.17;0.70;;;23.20;47.40;;;;;;5136990;27;20411;-51
2023/08/30 10:01:07;;;;;;;1.20;0.67;;;23.30;47.60;;;;;;5136524;27;20447;-56
2023/08/30 10:03:34;;;;;;;1.00;0.30;;;23.30;46.80;;;;;;5136551;27;20783;-57
2023/08/30 10:06:02;;;;;;;1.10;0.50;;;23.30;47.00;;;;;;5136524;27;20547;-51
2023/08/30 10:08:31;;;;;;;1.00;0.40;;;23.30;46.90;;;;;;5136581;27;20799;-58
2023/08/30 10:10:59;;;;;;;1.30;0.50;;;23.30;46.90;;;;;;5136765;27;20901;-58
2023/08/30 10:13:25;;;;;;;1.10;0.50;;;23.30;46.60;;;;;;5136672;27;20415;-51
2023/08/30 10:15:57;;;;;;;1.03;0.40;;;23.30;46.20;;;;;;5135933;27;20404;-52
2023/08/30 10:18:28;;;;;;;1.30;0.57;;;23.40;46.90;;;;;;5136388;27;20390;-54
2023/08/30 10:20:55;;;;;;;1.30;0.60;;;23.40;47.30;;;;;;5136403;27;20484;-53
2023/08/30 10:23:22;;;;;;;1.00;0.33;;;23.40;44.80;;;;;;5136450;27;20449;-57
2023/08/30 10:25:50;;;;;;;1.10;0.47;;;23.40;45.80;;;;;;5135989;27;20986;-51
2023/08/30 10:28:17;;;;;;;1.10;0.73;;;23.50;46.50;;;;;;5135933;27;20936;-52
2023/08/30 10:30:43;;;;;;;1.00;0.40;;;23.50;46.60;;;;;;5136259;27;20495;-57
2023/08/30 10:33:17;;;;;;;1.20;0.63;;;23.60;46.20;;;;;;5136276;27;20396;-51
2023/08/30 10:35:55;;;;;;;1.20;0.70;;;23.60;45.90;;;;;;5135784;27;20821;-52
2023/08/30 10:38:26;;;;;;;1.20;0.50;;;23.70;45.90;;;;;;5135909;27;20896;-51
2023/08/30 10:40:52;;;;;;;1.20;0.70;;;23.80;46.20;;;;;;5136008;27;20847;-56
2023/08/30 10:43:29;;;;;;;1.30;0.50;;;23.90;46.40;;;;;;5136145;27;20405;-56
2023/08/30 10:46:02;;;;;;;1.10;0.60;;;24.00;46.20;;;;;;5135615;27;20179;-50
2023/08/30 10:48:38;;;;;;;1.10;0.40;;;24.10;46.30;;;;;;5135833;27;20424;-52
2023/08/30 10:51:07;;;;;;;1.10;0.53;;;24.20;45.50;;;;;;5135331;27;20403;-56
2023/08/30 10:53:33;;;;;;;1.10;0.60;;;24.30;46.00;;;;;;5135878;27;20412;-52
2023/08/30 10:56:11;;;;;;;1.40;0.70;;;24.30;45.50;;;;;;5135509;27;20407;-54
2023/08/30 10:58:43;;;;;;;1.10;0.60;;;24.30;43.60;;;;;;5135839;27;20408;-51
2023/08/30 11:01:12;;;;;;;1.20;0.50;;;24.30;43.40;;;;;;5135715;27;20451;-55
2023/08/30 11:03:40;;;;;;;1.00;0.40;;;24.20;43.00;;;;;;5135399;27;20396;-51
2023/08/30 11:06:05;;;;;;;1.10;0.50;;;24.20;44.20;;;;;;5135063;27;20408;-53
2023/08/30 11:08:31;;;;;;;1.20;0.50;;;24.30;43.90;;;;;;5135405;27;20396;-56
2023/08/30 11:11:04;;;;;;;1.10;0.57;;;24.30;44.50;;;;;;5135504;27;20297;-51
2023/08/30 11:13:30;;;;;;;1.10;0.60;;;24.40;44.50;;;;;;5135340;27;20494;-56
2023/08/30 11:16:04;;;;;;;1.23;0.50;;;24.50;43.80;;;;;;5135046;27;20403;-50
2023/08/30 11:18:39;;;;;;;1.10;0.67;;;24.60;41.90;;;;;;5135213;27;20624;-51
2023/08/30 11:21:06;;;;;;;1.10;0.60;;;24.60;42.30;;;;;;5135093;27;20447;-57
2023/08/30 11:23:32;;;;;;;1.00;0.40;;;24.60;42.60;;;;;;5135243;27;20405;-52
2023/08/30 11:25:58;;;;;;;1.17;0.63;;;24.60;43.40;;;;;;5134903;27;20430;-52
2023/08/30 11:28:25;;;;;;;1.40;0.90;;;24.70;42.30;;;;;;5135318;27;20400;-56
2023/08/30 11:30:54;;;;;;;1.30;0.80;;;24.80;43.00;;;;;;5134825;27;20191;-54
2023/08/30 11:33:21;;;;;;;1.00;0.40;;;24.80;42.70;;;;;;5134923;27;20404;-50
2023/08/30 11:35:51;;;;;;;1.00;0.50;;;24.80;42.10;;;;;;5134482;27;20438;-54
2023/08/30 11:38:18;;;;;;;1.20;0.90;;;24.90;42.10;;;;;;5134757;27;20420;-55
2023/08/30 11:40:45;;;;;;;1.07;0.50;;;25.00;42.20;;;;;;5134699;27;20512;-51
2023/08/30 11:43:10;;;;;;;1.10;0.63;;;25.10;42.60;;;;;;5134617;27;20739;-51
2023/08/30 11:45:36;;;;;;;1.30;0.73;;;25.20;42.30;;;;;;5134412;27;20411;-57
2023/08/30 11:48:03;;;;;;;1.20;0.60;;;25.30;42.60;;;;;;5134544;27;20543;-57
2023/08/30 11:50:29;;;;;;;1.03;0.40;;;25.40;42.10;;;;;;5133330;27;20174;-52
2023/08/30 11:52:56;;;;;;;1.20;0.60;;;25.50;39.70;;;;;;5134630;27;20506;-51
2023/08/30 11:55:22;;;;;;;1.13;0.60;;;25.50;38.50;;;;;;5134321;27;20396;-55
2023/08/30 11:57:51;;;;;;;1.00;0.40;;;25.60;37.10;;;;;;5134293;27;20420;-55
2023/08/30 12:00:19;;;;;;;1.30;0.70;;;25.70;39.30;;;;;;5134267;27;20981;-55
2023/08/30 12:02:46;;;;;;;1.10;0.50;;;25.70;37.80;;;;;;5133391;27;20424;-52
2023/08/30 12:05:15;;;;;;;1.10;0.40;;;25.80;39.50;;;;;;5134072;27;20400;-54
2023/08/30 12:07:41;;;;;;;1.20;0.70;;;25.90;38.60;;;;;;5134201;27;20420;-56
2023/08/30 12:10:09;;;;;;;1.00;0.40;;;25.90;39.30;;;;;;5134141;27;20432;-52
2023/08/30 12:12:38;;;;;;;1.10;0.63;;;26.00;37.90;;;;;;5133978;27;20411;-54
2023/08/30 12:15:11;;;;;;;1.10;0.57;;;26.10;38.70;;;;;;5134004;27;20907;-53
2023/08/30 12:17:37;;;;;;;2.07;1.10;;;26.20;38.20;;;;;;5133890;27;20781;-52
2023/08/30 12:20:03;;;;;;;1.10;0.50;;;26.10;35.90;;;;;;5133872;27;20443;-56
2023/08/30 12:22:51;;;;;;;1.43;0.50;;;26.00;35.40;;;;;;5133981;27;20664;-52
2023/08/30 12:25:22;;;;;;;1.37;0.40;;;25.90;34.00;;;;;;5132368;27;20477;-53
2023/08/30 12:27:48;;;;;;;1.30;0.57;;;25.80;34.90;;;;;;5133684;27;20424;-55
2023/08/30 12:30:18;;;;;;;1.17;0.60;;;25.70;35.80;;;;;;5134052;27;20499;-52
2023/08/30 12:32:45;;;;;;;1.10;0.50;;;25.50;37.10;;;;;;5134034;27;20414;-54
2023/08/30 12:35:10;;;;;;;1.10;0.50;;;25.40;36.70;;;;;;5133389;27;20427;-57
2023/08/30 12:37:36;;;;;;;1.20;0.63;;;25.30;37.60;;;;;;5133468;27;20425;-53
2023/08/30 12:40:03;;;;;;;1.10;0.70;;;25.20;36.50;;;;;;5133537;27;20197;-52
2023/08/30 12:42:29;;;;;;;1.20;0.60;;;25.10;37.20;;;;;;5133776;27;20420;-55
2023/08/30 12:44:54;;;;;;;1.90;1.00;;;25.10;38.00;;;;;;5133470;27;20461;-53
2023/08/30 12:47:20;;;;;;;1.20;0.70;;;25.00;38.60;;;;;;5133365;27;20537;-59